createdAt,value
2023-01-27T00:00:14.371Z,94.62
2023-01-27T00:02:42.398Z,95.05
2023-01-27T00:05:11.843Z,93.89
2023-01-27T00:07:39.067Z,94.35
2023-01-27T00:10:06.200Z,94.33
2023-01-27T00:12:51.176Z,94.15
2023-01-27T00:15:17.807Z,93.65
2023-01-27T00:17:44.306Z,95.04
2023-01-27T00:20:11.637Z,94.17
2023-01-27T00:22:57.233Z,93.67
2023-01-27T00:25:23.761Z,93.82
2023-01-27T00:27:50.284Z,94.60
2023-01-27T00:30:18.083Z,94.45
2023-01-27T00:33:03.688Z,95.82
2023-01-27T00:35:30.220Z,96.58
2023-01-27T00:37:56.789Z,96.09
2023-01-27T00:40:23.374Z,96.64
2023-01-27T00:42:49.923Z,96.31
2023-01-27T00:45:35.085Z,96.95
2023-01-27T00:48:01.703Z,96.68
2023-01-27T00:50:28.256Z,94.86
2023-01-27T00:52:54.828Z,95.86
2023-01-27T00:55:21.346Z,96.06
2023-01-27T00:57:47.925Z,96.52
2023-01-27T01:00:15.868Z,98.36
2023-01-27T01:02:42.605Z,98.05
2023-01-27T01:05:09.948Z,98.45
2023-01-27T01:07:36.493Z,98.92
2023-01-27T01:10:03.299Z,99.68
2023-01-27T01:12:29.851Z,98.06
2023-01-27T01:14:56.386Z,97.43
2023-01-27T01:17:22.937Z,96.64
2023-01-27T01:19:49.456Z,96.77
2023-01-27T01:22:15.982Z,95.93
2023-01-27T01:24:42.492Z,98.45
2023-01-27T01:27:09.048Z,97.33
2023-01-27T01:29:36.176Z,97.42
2023-01-27T01:32:02.874Z,98.95
2023-01-27T01:34:31.396Z,99.20
2023-01-27T01:36:58.155Z,98.82
2023-01-27T01:39:24.675Z,98.62
2023-01-27T01:41:51.216Z,99.15
2023-01-27T01:44:25.337Z,97.32
2023-01-27T01:46:51.992Z,97.43
2023-01-27T01:49:22.920Z,95.92
2023-01-27T01:52:02.771Z,95.20
2023-01-27T01:54:42.560Z,99.48
2023-01-27T01:57:25.768Z,100.00
2023-01-27T01:59:58.684Z,99.48
2023-01-27T02:02:26.684Z,100.00
2023-01-27T02:04:59.171Z,100.00
2023-01-27T02:07:33.475Z,99.69
2023-01-27T02:10:00.680Z,97.83
2023-01-27T02:12:27.642Z,98.59
2023-01-27T02:14:54.705Z,99.43
2023-01-27T02:17:22.022Z,97.25
2023-01-27T02:20:06.404Z,97.53
2023-01-27T02:23:11.887Z,97.56
2023-01-27T02:26:26.662Z,98.68
2023-01-27T02:28:59.138Z,97.94
2023-01-27T02:31:26.624Z,97.99
2023-01-27T02:33:57.869Z,98.93
2023-01-27T02:36:27.535Z,99.67
2023-01-27T02:38:56.775Z,97.97
2023-01-27T02:41:30.425Z,97.55
2023-01-27T02:43:57.159Z,98.58
2023-01-27T02:46:23.831Z,97.97
2023-01-27T02:48:50.555Z,98.37
2023-01-27T02:51:17.327Z,97.85
2023-01-27T02:53:45.300Z,97.54
2023-01-27T02:56:12.016Z,96.30
2023-01-27T02:58:38.570Z,95.30
2023-01-27T03:01:12.424Z,90.34
2023-01-27T03:03:43.981Z,92.28
2023-01-27T03:06:11.303Z,94.77
2023-01-27T03:08:38.545Z,93.53
2023-01-27T03:11:05.795Z,94.52
2023-01-27T03:13:32.719Z,95.08
2023-01-27T03:16:18.439Z,95.39
2023-01-27T03:18:49.583Z,94.11
2023-01-27T03:21:18.652Z,92.89
2023-01-27T03:23:49.024Z,92.47
2023-01-27T03:26:20.136Z,95.00
2023-01-27T03:29:11.132Z,95.49
2023-01-27T03:31:40.919Z,94.94
2023-01-27T03:34:07.542Z,96.21
2023-01-27T03:36:59.745Z,92.69
2023-01-27T03:39:45.152Z,93.80
2023-01-27T03:42:30.594Z,94.20
2023-01-27T03:45:15.883Z,95.03
2023-01-27T03:47:42.533Z,92.88
2023-01-27T03:50:11.211Z,93.53
2023-01-27T03:52:38.310Z,95.20
2023-01-27T03:55:05.170Z,95.28
2023-01-27T03:57:31.697Z,95.01
2023-01-27T03:59:58.262Z,96.56
2023-01-27T04:02:43.321Z,95.36
2023-01-27T04:05:28.450Z,94.55
2023-01-27T04:07:55.108Z,93.91
2023-01-27T04:10:21.683Z,95.04
2023-01-27T04:12:48.666Z,93.92
2023-01-27T04:15:15.405Z,93.64
2023-01-27T04:17:45.380Z,93.49
2023-01-27T04:20:12.446Z,93.27
2023-01-27T04:22:39.822Z,95.62
2023-01-27T04:25:06.959Z,95.85
2023-01-27T04:27:33.663Z,95.75
2023-01-27T04:30:00.485Z,94.92
2023-01-27T04:32:27.743Z,94.95
2023-01-27T04:34:54.434Z,95.35
2023-01-27T04:37:20.978Z,95.13
2023-01-27T04:39:47.544Z,95.11
2023-01-27T04:42:14.218Z,94.34
2023-01-27T04:44:40.696Z,94.74
2023-01-27T04:47:07.303Z,96.30
2023-01-27T04:49:33.815Z,96.50
2023-01-27T04:52:09.144Z,96.52
2023-01-27T04:54:35.776Z,96.19
2023-01-27T04:57:05.621Z,95.64
2023-01-27T04:59:32.154Z,95.87
2023-01-27T05:01:59.496Z,97.38
2023-01-27T05:04:27.095Z,96.99
2023-01-27T05:06:54.123Z,96.82
2023-01-27T05:09:20.698Z,96.16
2023-01-27T05:11:47.182Z,96.92
2023-01-27T05:14:14.612Z,97.50
2023-01-27T05:16:41.217Z,97.38
2023-01-27T05:19:08.895Z,96.73
2023-01-27T05:21:35.438Z,95.98
2023-01-27T05:24:02.381Z,96.79
2023-01-27T05:26:29.065Z,95.54
2023-01-27T05:28:58.494Z,95.47
2023-01-27T05:31:28.114Z,94.49
2023-01-27T05:33:55.928Z,94.42
2023-01-27T05:36:24.592Z,93.09
2023-01-27T05:38:52.014Z,94.89
2023-01-27T05:41:19.764Z,95.43
2023-01-27T05:43:47.811Z,95.50
2023-01-27T05:46:19.796Z,95.47
2023-01-27T05:48:51.986Z,93.51
2023-01-27T05:51:20.875Z,94.43
2023-01-27T05:53:47.756Z,94.81
2023-01-27T05:56:17.100Z,94.60
2023-01-27T05:58:44.716Z,95.54
2023-01-27T06:01:17.456Z,96.50
2023-01-27T06:03:45.231Z,95.73
2023-01-27T06:06:13.227Z,95.41
2023-01-27T06:08:40.682Z,95.82
2023-01-27T06:11:07.875Z,95.22
2023-01-27T06:13:39.015Z,93.95
2023-01-27T06:16:08.968Z,95.05
2023-01-27T06:18:36.705Z,93.94
2023-01-27T06:21:07.628Z,94.30
2023-01-27T06:23:34.758Z,95.20
2023-01-27T06:26:03.475Z,95.33
2023-01-27T06:28:30.372Z,95.19
2023-01-27T06:31:04.947Z,94.94
2023-01-27T06:33:31.459Z,95.05
2023-01-27T06:36:06.214Z,94.06
2023-01-27T06:38:32.858Z,94.30
2023-01-27T06:41:00.374Z,94.97
2023-01-27T06:43:28.017Z,95.58
2023-01-27T06:45:54.700Z,96.35
2023-01-27T06:48:21.204Z,95.04
2023-01-27T06:50:47.749Z,95.22
2023-01-27T06:53:14.287Z,95.05
2023-01-27T06:55:44.843Z,94.92
2023-01-27T06:58:12.901Z,94.73
2023-01-27T07:00:40.787Z,95.31
2023-01-27T07:03:09.318Z,96.73
2023-01-27T07:05:35.960Z,96.18
2023-01-27T07:08:02.556Z,95.74
2023-01-27T07:10:29.276Z,96.29
2023-01-27T07:13:06.063Z,95.19
2023-01-27T07:15:33.131Z,95.51
2023-01-27T07:18:01.075Z,94.68
2023-01-27T07:20:30.721Z,93.66
2023-01-27T07:22:58.718Z,94.51
2023-01-27T07:25:26.057Z,92.78
2023-01-27T07:27:53.456Z,93.89
2023-01-27T07:30:20.181Z,94.22
2023-01-27T07:32:46.751Z,94.07
2023-01-27T07:35:13.280Z,94.48
2023-01-27T07:37:39.837Z,94.63
2023-01-27T07:40:07.197Z,92.93
2023-01-27T07:42:33.800Z,91.77
2023-01-27T07:45:00.357Z,90.92
2023-01-27T07:47:26.895Z,94.05
2023-01-27T07:49:53.652Z,95.03
2023-01-27T07:52:20.246Z,93.25
2023-01-27T07:54:46.745Z,93.10
2023-01-27T07:57:13.288Z,93.15
2023-01-27T07:59:39.881Z,92.49
2023-01-27T08:02:06.770Z,93.46
2023-01-27T08:04:40.221Z,93.83
2023-01-27T08:07:17.845Z,93.28
2023-01-27T08:09:44.408Z,93.75
2023-01-27T08:12:11.036Z,93.65
2023-01-27T08:14:37.541Z,93.10
2023-01-27T08:17:04.088Z,93.03
2023-01-27T08:19:30.642Z,92.06
2023-01-27T08:21:57.645Z,90.70
2023-01-27T08:24:24.195Z,91.29
2023-01-27T08:26:50.712Z,91.68
2023-01-27T08:29:17.633Z,91.21
2023-01-27T08:31:44.234Z,89.26
2023-01-27T08:34:11.937Z,89.43
2023-01-27T08:36:42.455Z,89.30
2023-01-27T08:39:10.062Z,90.51
2023-01-27T08:41:36.639Z,89.09
2023-01-27T08:44:03.373Z,90.84
2023-01-27T08:46:29.926Z,91.89
2023-01-27T08:48:56.435Z,94.76
2023-01-27T08:51:23.101Z,93.19
2023-01-27T08:53:49.681Z,93.56
2023-01-27T08:56:16.631Z,92.99
2023-01-27T08:58:43.288Z,94.91
2023-01-27T09:01:10.274Z,94.76
2023-01-27T09:03:37.239Z,94.51
2023-01-27T09:06:09.079Z,97.46
2023-01-27T09:08:35.744Z,95.40
2023-01-27T09:11:08.888Z,96.63
2023-01-27T09:13:35.420Z,96.28
2023-01-27T09:16:02.714Z,96.95
2023-01-27T09:18:29.316Z,94.66
2023-01-27T09:20:55.883Z,94.40
2023-01-27T09:23:22.535Z,93.24
2023-01-27T09:25:50.040Z,95.20
2023-01-27T09:28:19.488Z,94.62
2023-01-27T09:30:46.634Z,91.74
2023-01-27T09:33:17.448Z,94.20
2023-01-27T09:35:48.166Z,92.74
2023-01-27T09:38:18.755Z,91.67
2023-01-27T09:40:45.231Z,92.56
2023-01-27T09:43:41.832Z,91.70
2023-01-27T09:46:26.508Z,92.18
2023-01-27T09:49:04.936Z,91.09
2023-01-27T09:51:40.107Z,90.42
2023-01-27T09:54:28.387Z,89.42
2023-01-27T09:57:11.326Z,88.85
2023-01-27T09:59:56.653Z,89.51
2023-01-27T10:02:51.176Z,88.50
2023-01-27T10:05:55.245Z,88.00
2023-01-27T10:08:21.657Z,89.90
2023-01-27T10:10:53.301Z,88.86
2023-01-27T10:13:40.231Z,86.88
2023-01-27T10:16:35.444Z,87.04
2023-01-27T10:19:11.924Z,87.99
2023-01-27T10:21:51.759Z,88.34
2023-01-27T10:24:33.398Z,88.09
2023-01-27T10:27:15.758Z,88.91
2023-01-27T10:29:51.349Z,89.07
2023-01-27T10:32:45.697Z,87.25
2023-01-27T10:35:21.631Z,89.14
2023-01-27T10:37:57.072Z,86.58
2023-01-27T10:40:36.081Z,86.18
2023-01-27T10:43:26.058Z,86.32
2023-01-27T10:46:09.307Z,87.47
2023-01-27T10:48:54.513Z,87.69
2023-01-27T10:51:45.768Z,86.19
2023-01-27T10:54:24.173Z,85.15
2023-01-27T10:56:56.571Z,84.69
2023-01-27T11:00:17.388Z,86.90
2023-01-27T11:02:45.832Z,84.34
2023-01-27T11:05:20.604Z,84.57
2023-01-27T11:07:52.494Z,85.93
2023-01-27T11:10:22.180Z,86.99
2023-01-27T11:12:54.562Z,87.94
2023-01-27T11:33:03.853Z,88.31
2023-01-27T11:35:30.477Z,84.63
2023-01-27T11:38:09.808Z,86.94
2023-01-27T11:40:41.653Z,86.78
2023-01-27T11:43:13.495Z,87.05
2023-01-27T11:45:40.101Z,85.91
2023-01-27T11:48:14.310Z,86.92
2023-01-27T11:50:42.227Z,87.98
2023-01-27T11:53:29.719Z,86.08
2023-01-27T11:56:02.186Z,84.54
2023-01-27T11:59:03.299Z,86.95
2023-01-27T12:01:44.789Z,84.25
2023-01-27T12:04:19.994Z,84.07
2023-01-27T12:06:55.711Z,85.00
2023-01-27T12:09:34.361Z,86.27
2023-01-27T12:12:20.908Z,84.88
2023-01-27T12:14:59.525Z,84.85
2023-01-27T12:17:45.548Z,84.41
2023-01-27T12:20:33.934Z,84.73
2023-01-27T12:23:05.171Z,84.03
2023-01-27T12:25:42.818Z,82.92
2023-01-27T12:28:22.019Z,81.76
2023-01-27T12:30:49.057Z,84.31
2023-01-27T12:33:23.984Z,84.52
2023-01-27T12:35:51.478Z,85.00
2023-01-27T12:38:20.388Z,82.68
2023-01-27T12:40:48.052Z,85.77
2023-01-27T12:43:19.995Z,85.19
2023-01-27T12:46:05.025Z,86.79
2023-01-27T12:48:34.094Z,85.50
2023-01-27T12:51:15.830Z,85.99
2023-01-27T12:53:44.310Z,85.06
2023-01-27T12:56:14.847Z,87.07
2023-01-27T12:58:54.210Z,86.41
2023-01-27T13:01:20.713Z,85.59
2023-01-27T13:04:00.328Z,84.63
2023-01-27T13:06:41.911Z,85.74
2023-01-27T13:09:38.153Z,85.96
2023-01-27T13:12:15.733Z,85.97
2023-01-27T13:14:43.389Z,86.06
2023-01-27T13:17:34.600Z,86.13
2023-01-27T13:20:25.163Z,87.39
2023-01-27T13:22:59.428Z,86.82
2023-01-27T13:25:40.561Z,85.54
2023-01-27T13:28:08.883Z,86.27
2023-01-27T13:30:40.429Z,84.64
2023-01-27T13:33:26.341Z,85.19
2023-01-27T13:36:08.273Z,87.61
2023-01-27T13:39:11.856Z,86.08
2023-01-27T13:41:49.941Z,86.90
2023-01-27T13:44:28.470Z,85.76
2023-01-27T13:47:01.844Z,87.75
2023-01-27T13:49:45.698Z,88.39
2023-01-27T13:52:12.968Z,87.36
2023-01-27T13:54:39.750Z,87.69
2023-01-27T13:57:06.189Z,87.30
2023-01-27T13:59:32.601Z,88.20
2023-01-27T14:02:30.165Z,87.07
2023-01-27T14:05:20.463Z,86.67
2023-01-27T14:08:24.143Z,85.58
2023-01-27T14:11:09.266Z,86.40
2023-01-27T14:14:03.334Z,84.09
2023-01-27T14:16:40.510Z,87.48
2023-01-27T14:19:22.032Z,87.77
2023-01-27T14:22:14.737Z,88.02
2023-01-27T14:24:50.081Z,88.88
2023-01-27T14:27:28.886Z,87.17
2023-01-27T14:30:07.713Z,88.24
2023-01-27T14:33:02.302Z,87.51
2023-01-27T14:35:35.995Z,88.70
2023-01-27T14:38:50.728Z,88.46
2023-01-27T14:41:27.452Z,87.77
2023-01-27T14:44:21.983Z,86.31
2023-01-27T14:46:56.433Z,87.43
2023-01-27T14:49:41.110Z,87.42
2023-01-27T14:52:49.689Z,87.34
2023-01-27T14:55:28.371Z,87.55
2023-01-27T14:58:05.763Z,88.65
2023-01-27T15:00:59.592Z,87.60
2023-01-27T15:04:02.047Z,86.60
2023-01-27T15:06:47.766Z,88.54
2023-01-27T15:09:17.033Z,88.16
2023-01-27T15:11:44.028Z,88.41
2023-01-27T15:14:29.482Z,87.15
2023-01-27T15:17:20.675Z,87.11
2023-01-27T15:20:22.586Z,87.02
2023-01-27T15:23:20.548Z,87.13
2023-01-27T15:25:50.208Z,87.09
2023-01-27T15:28:21.562Z,86.99
2023-01-27T15:31:14.917Z,87.21
2023-01-27T15:33:56.912Z,87.71
2023-01-27T15:36:30.583Z,88.33
2023-01-27T15:39:20.228Z,88.14
2023-01-27T15:42:01.515Z,88.78
2023-01-27T15:44:30.443Z,87.80
2023-01-27T15:47:09.444Z,88.53
2023-01-27T15:49:47.277Z,88.00
2023-01-27T15:52:31.711Z,87.18
2023-01-27T15:55:01.420Z,88.07
2023-01-27T15:57:37.176Z,88.84
2023-01-27T16:00:15.571Z,88.77
2023-01-27T16:02:47.098Z,87.63
2023-01-27T16:05:17.879Z,88.08
2023-01-27T16:07:50.552Z,87.96
2023-01-27T16:10:21.906Z,87.24
2023-01-27T16:12:49.305Z,88.14
2023-01-27T16:15:16.140Z,88.45
2023-01-27T16:18:07.159Z,87.90
2023-01-27T16:20:39.469Z,87.86
2023-01-27T16:23:13.485Z,87.79
2023-01-27T16:25:46.598Z,88.44
2023-01-27T16:28:18.491Z,88.27
2023-01-27T16:30:56.677Z,87.45
2023-01-27T16:33:31.156Z,87.89
2023-01-27T16:36:28.396Z,88.17
2023-01-27T16:38:59.310Z,88.06
2023-01-27T16:41:28.644Z,88.71
2023-01-27T16:44:03.149Z,87.57
2023-01-27T16:46:36.552Z,85.69
2023-01-27T16:49:11.798Z,86.34
2023-01-27T16:51:38.988Z,87.78
2023-01-27T16:54:22.562Z,87.91
2023-01-27T16:56:51.879Z,87.87
2023-01-27T16:59:23.957Z,88.14
2023-01-27T17:01:53.999Z,87.80
2023-01-27T17:04:24.988Z,88.64
2023-01-27T17:06:56.091Z,88.98
2023-01-27T17:09:30.007Z,86.96
2023-01-27T17:11:56.598Z,87.99
2023-01-27T17:14:42.689Z,87.47
2023-01-27T17:17:19.317Z,87.94
2023-01-27T17:19:50.956Z,88.08
2023-01-27T17:22:27.128Z,88.45
2023-01-27T17:25:00.725Z,87.98
2023-01-27T17:27:34.630Z,89.22
2023-01-27T17:30:09.914Z,89.29
2023-01-27T17:32:39.644Z,88.14
2023-01-27T17:35:19.354Z,87.74
2023-01-27T17:37:45.907Z,89.52
2023-01-27T17:40:19.052Z,87.84
2023-01-27T17:42:45.648Z,87.22
2023-01-27T17:45:29.971Z,88.90
2023-01-27T17:48:00.998Z,89.35
2023-01-27T17:50:34.357Z,90.20
2023-01-27T17:53:00.954Z,91.29
2023-01-27T17:55:30.911Z,91.17
2023-01-27T17:58:05.142Z,90.16
2023-01-27T18:00:38.794Z,90.49
2023-01-27T18:03:17.158Z,89.70
2023-01-27T18:05:46.072Z,90.56
2023-01-27T18:08:12.696Z,92.12
2023-01-27T18:10:45.837Z,93.13
2023-01-27T18:13:18.183Z,93.09
2023-01-27T18:15:49.796Z,92.37
2023-01-27T18:18:19.073Z,91.35
2023-01-27T18:20:49.293Z,90.36
2023-01-27T18:23:21.332Z,92.09
2023-01-27T18:25:53.262Z,92.78
2023-01-27T18:28:19.987Z,92.41
2023-01-27T18:30:51.080Z,91.81
2023-01-27T18:33:18.360Z,90.55
2023-01-27T18:35:55.555Z,90.25
2023-01-27T18:38:24.736Z,90.38
2023-01-27T18:40:51.351Z,90.50
2023-01-27T18:43:17.940Z,91.79
2023-01-27T18:45:45.210Z,90.98
2023-01-27T18:48:17.380Z,91.42
2023-01-27T18:50:46.588Z,89.82
2023-01-27T18:53:15.715Z,89.85
2023-01-27T18:55:42.681Z,90.24
2023-01-27T18:58:12.897Z,89.36
2023-01-27T19:00:50.550Z,90.00
2023-01-27T19:03:21.613Z,90.07
2023-01-27T19:05:48.994Z,89.77
2023-01-27T19:08:20.614Z,90.04
2023-01-27T19:10:48.470Z,90.24
2023-01-27T19:13:16.333Z,90.81
2023-01-27T19:15:54.825Z,92.01
2023-01-27T19:18:36.719Z,90.80
2023-01-27T19:21:03.397Z,90.80
2023-01-27T19:23:32.443Z,90.89
2023-01-27T19:26:03.152Z,89.49
2023-01-27T19:28:37.432Z,89.72
2023-01-27T19:31:06.647Z,90.22
2023-01-27T19:33:34.708Z,90.87
2023-01-27T19:36:31.295Z,90.01
2023-01-27T19:39:09.226Z,90.15
2023-01-27T19:41:35.807Z,90.74
2023-01-27T19:44:03.374Z,89.93
2023-01-27T19:46:30.597Z,91.19
2023-01-27T19:48:57.902Z,91.84
2023-01-27T19:51:24.632Z,91.19
2023-01-27T19:53:51.243Z,89.86
2023-01-27T19:56:20.838Z,90.73
2023-01-27T19:58:52.616Z,91.12
2023-01-27T20:01:20.807Z,91.54
2023-01-27T20:03:47.476Z,91.53
2023-01-27T20:06:15.952Z,91.11
2023-01-27T20:08:42.590Z,91.10
2023-01-27T20:11:39.619Z,89.98
2023-01-27T20:14:12.801Z,91.51
2023-01-27T20:16:39.555Z,91.15
2023-01-27T20:19:06.140Z,89.36
2023-01-27T20:21:33.904Z,90.35
2023-01-27T20:24:02.267Z,90.17
2023-01-27T20:26:32.475Z,88.09
2023-01-27T20:28:59.145Z,90.36
2023-01-27T20:31:26.132Z,91.41
2023-01-27T20:33:52.904Z,90.62
2023-01-27T20:36:22.218Z,90.72
2023-01-27T20:38:49.161Z,92.73
2023-01-27T20:41:19.260Z,89.80
2023-01-27T20:43:46.108Z,93.01
2023-01-27T20:46:15.624Z,91.93
2023-01-27T20:48:42.392Z,92.89
2023-01-27T20:51:12.375Z,95.80
2023-01-27T20:53:45.447Z,95.52
2023-01-27T20:56:17.922Z,95.61
2023-01-27T20:58:45.106Z,94.96
2023-01-27T21:01:14.227Z,97.25
2023-01-27T21:03:41.660Z,97.83
2023-01-27T21:06:09.795Z,94.80
2023-01-27T21:08:39.262Z,94.25
2023-01-27T21:11:10.713Z,94.04
2023-01-27T21:13:37.465Z,94.03
2023-01-27T21:16:04.107Z,95.00
2023-01-27T21:18:31.556Z,95.84
2023-01-27T21:21:02.661Z,96.17
2023-01-27T21:23:29.952Z,97.18
2023-01-27T21:25:56.612Z,94.98
2023-01-27T21:28:23.249Z,95.16
2023-01-27T21:30:49.839Z,92.96
2023-01-27T21:33:17.079Z,95.18
2023-01-27T21:35:43.594Z,93.08
2023-01-27T21:38:10.167Z,91.97
2023-01-27T21:40:36.912Z,93.50
2023-01-27T21:43:21.941Z,94.93
2023-01-27T21:45:58.242Z,93.75
2023-01-27T21:48:24.838Z,95.03
2023-01-27T21:50:52.025Z,95.44
2023-01-27T21:53:18.595Z,94.02
2023-01-27T21:55:45.163Z,93.52
2023-01-27T21:58:11.703Z,93.23
2023-01-27T22:00:38.382Z,92.66
2023-01-27T22:03:05.871Z,93.54
2023-01-27T22:05:33.886Z,94.76
2023-01-27T22:08:03.057Z,94.99
2023-01-27T22:10:30.299Z,96.56
2023-01-27T22:13:03.892Z,95.76
2023-01-27T22:15:31.222Z,93.85
2023-01-27T22:17:58.417Z,94.24
2023-01-27T22:20:26.071Z,95.05
2023-01-27T22:22:52.759Z,95.47
2023-01-27T22:25:19.834Z,96.58
2023-01-27T22:27:46.835Z,96.03
2023-01-27T22:30:18.289Z,96.15
2023-01-27T22:32:46.083Z,95.71
2023-01-27T22:35:18.144Z,95.00
2023-01-27T22:37:45.382Z,94.60
2023-01-27T22:40:13.337Z,94.97
2023-01-27T22:42:40.211Z,95.16
2023-01-27T22:45:08.739Z,96.33
2023-01-27T22:47:35.959Z,95.50
2023-01-27T22:50:02.668Z,94.40
2023-01-27T22:52:29.222Z,94.56
2023-01-27T22:54:55.759Z,94.46
2023-01-27T22:57:22.346Z,95.89
2023-01-27T22:59:48.853Z,95.01
2023-01-27T23:17:48.715Z,97.26
2023-01-27T23:20:15.418Z,97.35
2023-01-27T23:22:42.019Z,95.01
2023-01-27T23:25:09.341Z,95.26
2023-01-27T23:27:35.941Z,95.59
2023-01-27T23:30:02.568Z,92.95
2023-01-27T23:32:29.134Z,93.00
2023-01-27T23:34:55.747Z,94.31
2023-01-27T23:37:22.322Z,94.57
2023-01-27T23:39:49.831Z,93.84
2023-01-27T23:42:17.671Z,94.40
2023-01-27T23:44:44.462Z,93.59
2023-01-27T23:47:11.818Z,93.40
2023-01-27T23:49:38.311Z,94.25
2023-01-27T23:52:05.145Z,92.70
2023-01-27T23:54:32.383Z,91.73
2023-01-27T23:56:59.639Z,94.06
2023-01-27T23:59:26.213Z,92.67
